METARS
Date METAR Location Area
31/10/2014 LGY7 312130Z 04507KT 14/09 Q1020 Aegina Attica
31/10/2014 LGH5 312130Z 02304KT 13/07 Q1020 Ampelokipoi Attica
31/10/2014 LGS5 312130Z 04503KT 14/08 Q1014 Anavissos Attica
31/10/2014 LGO0 312130Z 04504KT 13/08 Q1020 Ano Liosia Attica
31/10/2014 LGB9 312130Z 04506KT 14/07 Q1021 Athens - Gazi Attica
31/10/2014 LGL5 312130Z 02314G25KT 11/07 Q1019 Ekali Attica
31/10/2014 LGS3 312130Z 04505G16KT 14/07 Q1020 Faliro Attica
31/10/2014 LGM3 312130Z 15803KT 16/10 Q1020 Hydra Attica
31/10/2014 LGI4 302200Z 00000G31104KT 152/127 Q10187 Hydra Attica
20/10/2014 LGO2 200630Z 02305KT 09/06 Q1024 Imittos Attica
31/10/2014 LGT8 312130Z 00001KT 08/06 Q1021 Ippokratios Attica
31/10/2014 LG99 311730Z 00000KT 00/00 Q 0 Kantza Attica
31/10/2014 LG13 312030Z 33003KT 10/07 Q1021 Kifissia Attica
31/10/2014 LGD6 312130Z 02317G28KT 15/09 Q1018 Lavrio Attica
31/10/2014 LGK0 312130Z 00005G16KT 12/07 Q1020 Marousi Attica
31/10/2014 LG00 312210Z 00000KT 11/05 Q1018 Marousi (Anavrita) Attica
31/10/2014 LGR0 312130Z 00006KT 14/07 Q1020 Nea Smirni Attica
31/10/2014 LGM8 312030Z 33805KT 14/08 Q1021 Neos Kosmos Attica
31/10/2014 LGA3 312210Z 04003KT 12/05 Q1020 Pallini - Kantza 2 Attica
31/10/2014 LGK3 312130Z 04526KT 03/03 Q1020 Parnitha 1230 EAA Attica
31/10/2014 LGT6 312130Z 06802KT 13/07 Q1021 Patissia Attica
31/10/2014 LGX9 312130Z 02310G26KT 10/06 Q1017 Penteli Attica
01/11/2014 LG67 312200Z 0676102G20844KT 119/60 Q10205 Penteli Attica
31/10/2014 LGU0 312130Z 04506G19KT 13/06 Q1020 Peristeri Attica
31/10/2014 LGY6 311630Z 02317KT 15/10 Q1019 Porto Rafti Attica
31/10/2014 LG96 312130Z 04505KT 13/07 Q1020 Psychico Attica
31/10/2014 LGZ0 312130Z 00013KT 14/08 Q1019 Rafina Attica
31/10/2014 LGG2 312130Z 02303KT 12/07 Q1019 Spata Attica
31/10/2014 LGS6 312130Z 09003KT 16/11 Q1019 Spetses Attica
31/10/2014 LGZ2 312130Z 00005KT 13/06 Q1020 Vari Attica
31/10/2014 LGR6 312130Z 09003KT 09/07 Q1021 Vilia Attica
30/10/2014 LG74 300700Z 00000G31104KT 153/109 Q10178 Ymittos Attica
01/11/2014 LGG1 312200Z 0456966G17388KT 123/70 Q86 Kalivia Thorikou Attica E
31/10/2014 LG45 312130Z 02307KT 13/08 Q1022 Markopoulo Attica E
31/10/2014 LG72 310210Z 00000KT 126/105 Q10159 Keratea Attica SE
31/10/2014 LGW4 310730Z 24800KT 13/11 Q1014 Ag. Ioannis Sfakion Crete
31/10/2014 LGJ9 312130Z 27004KT 16/12 Q1017 Aghios Nikolaos Crete
31/10/2014 LGT4 312130Z 22500KT 14/12 Q1018 Alikianos Crete
31/10/2014 LGB6 312130Z 06800KT -RA 09/09 Q1015 Anogeia Crete
31/10/2014 LGZ6 312130Z 33804KT RA 10/09 Q1020 Askyfou Crete
31/10/2014 LG25 312130Z 04503KT -RA 13/12 Q1017 Chania Crete
31/10/2014 LGN3 312130Z 09003KT -RA 15/14 Q1019 Chania Center Crete
31/10/2014 LG61 312130Z 02314KT 18/13 Q1017 Cost - Irakleio Crete
31/10/2014 LGL9 312130Z 11303G14KT 15/12 Q1016 Falasarna Crete
31/10/2014 LG9A 312130Z 31512KT 15/11 Q1015 Finokalia - Lasithi Crete
31/10/2014 LGL1 312130Z 33806KT 12/10 Q1016 Fourfouras Crete
30/10/2014 LGD4 300830Z 33807KT 26/15 Q1012 Fragmapotamon - Rethymno Crete
31/10/2014 LG30 312130Z 00000KT 15/13 Q1018 Heraklion - Knossos Crete
31/10/2014 LG95 312130Z 02310KT 16/13 Q1017 Ierapetra Crete
31/10/2014 LGP0 312130Z 02316KT 17/12 Q1016 Lentas Hrakleion Crete
27/10/2014 LGD7 271630Z 27003KT 14/12 Q1020 Metaxochori - Heraklion Crete
31/10/2014 LGI2 312130Z 09003KT 15/12 Q1016 Mires Crete
31/10/2014 LG36 312130Z 02310KT 17/10 Q1015 Paleochora Crete
31/10/2014 LG8A 312130Z 04502KT 12/12 Q1011 Pirathi Heraklion Crete
31/10/2014 LG58 312130Z 00003KT 17/12 Q1016 Rethymno Crete
31/10/2014 LGT2 312130Z 00010G27KT 16/12 Q1015 Rethymno - Plakia Crete
31/10/2014 LGB4 312130Z 29303KT 07/06 Q1017 Samaria Crete
31/10/2014 LGY1 311430Z 27000KT 15/14 Q1017 Samaria Crete
31/10/2014 LGM2 312130Z 31506KT 17/11 Q1016 Sitia Crete
31/10/2014 LG75 312130Z 00005KT 13/11 Q1018 Spili - Rethymnon Crete
31/10/2014 LG50 312130Z 00001KT 10/08 Q1017 Tzermiado Lasithi Crete
31/10/2014 LG70 312130Z 24800KT -RA 13/13 Q1017 Vrysses Crete
31/10/2014 LGT5 312130Z 04505G17KT 16/11 Q1016 Amorgos Cyclades
31/10/2014 LGN6 312130Z 00010G23KT 13/08 Q1019 Andros Cyclades
31/10/2014 LGS7 311730Z 33817KT 16/11 Q1016 Donoussa Cyclades
31/10/2014 LGI0 312130Z 00013KT 16/11 Q1017 Ios Cyclades
31/10/2014 LGP2 312130Z 04517G32KT 11/06 Q1022 Ioulida - Kea Cyclades
31/10/2014 LGP5 312130Z 31503KT 16/11 Q1017 Iraklia Cyclades
31/10/2014 LGE3 312130Z 02314G33KT 14/09 Q1019 Kea Cyclades
31/10/2014 LGX8 312130Z 33810KT 16/11 Q1017 Koufonissia Cyclades
31/10/2014 LGS0 312130Z 02311KT 14/09 Q1020 Milos Cyclades
31/10/2014 LG66 312130Z 02318G29KT 16/12 Q1017 Mykonos Cyclades
31/10/2014 LGM0 312130Z 00018KT 16/12 Q1018 Naxos Cyclades
31/10/2014 LGV3 312130Z 09002KT 08/06 Q1018 Naxos - Apiranthos Cyclades
08/10/2014 LGT0 081030Z 31507KT 22/19 Q1020 Naxos - Apollonas Cyclades
31/10/2014 LGU1 312130Z 04503G14KT 13/10 Q1017 Naxos - Damarionas Cyclades
31/10/2014 LGU2 312130Z 04509KT 11/09 Q1017 Naxos - Koronos Cyclades
31/10/2014 LGN7 312130Z 29303KT 12/10 Q1017 Naxos - Kynidaros Cyclades
31/10/2014 LGW1 312130Z 31508KT 14/10 Q1017 Naxos - Melanes Cyclades
09/10/2014 LGO7 091430Z 00017KT 26/20 Q1012 Naxos - Mikri Vigla Cyclades
31/10/2014 LG02 312230Z 00016KT 16/11 Q1018 Paros Cyclades
31/10/2014 LGX5 312130Z 00006KT 14/10 Q1016 Santorini Cyclades
31/10/2014 LGX7 312030Z 33805KT 15/09 Q1017 Schinoussa Cyclades
07/07/2014 LG07 070730Z 00000KT 255/97 Q10099 Tinos Cyclades
31/10/2014 LGB8 312130Z 00009KT 15/10 Q1018 Tinos NOA Cyclades
31/10/2014 LGAB 312130Z 22506KT 14/11 Q1013 Emponas - Rhodes Dodecanese
31/10/2014 LGG6 312130Z 29303KT 16/11 Q1015 Kalymnos Dodecanese
31/10/2014 LGAC 312130Z 29308KT 18/13 Q1013 Kattavia - Rhodes Dodecanese
31/10/2014 LG65 312130Z 33810KT 16/11 Q1016 Patmos Dodecanese
31/10/2014 LGS9 312130Z 27005KT 18/12 Q1015 Rhodes Dodecanese
29/10/2014 LGM5 291530Z 00000KT 19/16 Q1014 Kasos Dodecanisa
31/10/2014 LGX1 312130Z 31502KT 17/12 Q1015 Kos Dodekanissa
31/10/2014 LG4A 312130Z 02309KT 14/10 Q1017 Chios East Aegean
20/10/2014 LGT1 200730Z 31511G26KT 16/09 Q1019 Fournoi East Aegean
31/10/2014 LGI9 312130Z 33801KT 11/09 Q1015 Ikaria East Aegean
31/10/2014 LGI5 312130Z 00014KT 12/07 Q1020 Lemnos East Aegean
31/10/2014 LGI6 312130Z 02308KT 12/09 Q1019 Lesvos East Aegean
31/10/2014 LGJ3 312130Z 04513KT 14/10 Q1022 Lesvos - Thermi East Aegean
20/10/2014 LGZ7 201530Z 33807KT 18/07 Q1018 Mantamados East Aegean
31/10/2014 LGY5 312130Z 00002KT 10/07 Q1021 Molyvos East Aegean
31/10/2014 LGF1 312130Z 00003KT 15/11 Q1015 Samos East Aegean
31/10/2014 LGW7 312130Z 00023KT 12/06 Q1014 Akrotirio Paksimada Evia
31/10/2014 LGO3 312130Z 04509KT 12/07 Q1020 Chalkida Evia
31/10/2014 LGR5 312030Z 33828KT 10/08 Q1020 Kavodoro Evia
09/10/2014 LGY0 090700Z 11300KT 09/05 Q1034 Krieza Evia
31/10/2014 LGX0 312130Z 00007KT 12/08 Q1023 Kymi Evia
25/10/2014 LGT7 251000Z 27004KT 09/07 Q1011 Setta Evia
31/10/2014 LG81 312130Z 00009G20KT 10/06 Q1019 Steni Evia
31/10/2014 LGC4 312130Z 04510KT 14/09 Q1020 Styra Evia
31/10/2014 LGD3 312130Z 02310KT 13/08 Q1021 Zarakes Evia
31/10/2014 LGP6 312130Z 29304KT 09/05 Q1022 Agia Kyriaki Ioanninon Hepirus
31/10/2014 LGO1 312130Z 02303KT 12/05 Q1024 Aridaia Hepirus
31/10/2014 LGD2 312130Z 04503KT 13/07 Q1019 Arta - Kompoti Hepirus
31/10/2014 LG38 312130Z 00003KT 16/07 Q1019 Arta - Vlacherna Hepirus
19/10/2014 LGE4 191230Z 13504KT 19/07 Q1024 Aspraggeloi Hepirus
31/10/2014 LGI3 312130Z 09004KT 11/04 Q1019 Derviziana Hepirus
31/10/2014 LGP4 312130Z 15802KT 07/04 Q1020 Dodoni Hepirus
02/10/2014 LGL8 021430Z 02304KT 24/07 Q1015 Grammos Hepirus
31/10/2014 LG43 312130Z 02303KT 13/05 Q1018 Igoumenitsa Hepirus
31/10/2014 LG49 312130Z 02308KT 11/06 Q1019 Ioannina Anatoli Hepirus
31/10/2014 LGK1 312130Z 06803KT 14/08 Q1019 Kanali, Preveza Hepirus
31/10/2014 LGE0 312030Z 18002KT 08/04 Q1020 Katarraktis - Arta Hepirus
31/10/2014 LGO5 312130Z 13503KT 07/03 Q1021 Kerasovo Konitsa Hepirus
31/10/2014 LG3A 312130Z 06803KT 10/05 Q1022 Konitsa Hepirus
31/10/2014 LGO8 312130Z 24802KT 04/03 Q1021 Metsovo Hepirus
31/10/2014 LGK6 312030Z 00000KT 06/03 Q1023 Papigo Hepirus
31/10/2014 LGF6 311830Z 06802KT 09/04 Q1020 Paramythia Hepirus
31/10/2014 LGK9 312130Z 06801KT 15/08 Q1020 Parga Hepirus
31/10/2014 LGK7 311730Z 00002KT 10/04 Q1019 Pesta Hepirus
31/10/2014 LGY9 312030Z 33800KT 04/02 Q1059 Plikati Ioanninon Hepirus
31/10/2014 LGP1 312130Z 00003KT 09/04 Q1021 Pramanta Hepirus
31/10/2014 LGK2 312130Z 18003KT 08/04 Q1021 Theodoriana, Arta Hepirus
31/10/2014 LGD0 312130Z 00000KT 07/04 Q1020 Tristeno - Ioannina Hepirus
31/10/2014 LGM4 312130Z 31500KT 08/05 Q1020 Tyria Hepirus
31/10/2014 LGR8 312130Z 33802KT 10/05 Q1020 Vourgareli Artas Hepirus
31/10/2014 LGN9 312030Z 33801KT 06/03 Q1022 Vovoussa Hepirus
26/10/2014 LGN0 261130Z 29302KT 16/08 Q1017 Zitsa Hepirus
31/10/2014 LGJ2 312130Z 00000KT 12/10 Q1020 Corfu - Gouvia Ionio
31/10/2014 LGB0 312130Z 09004KT 16/09 Q1019 Ithaki Ionio
31/10/2014 LGI7 312130Z 06809KT 16/10 Q1020 Lefkada Ionio
31/10/2014 LGN1 312130Z 22500KT 15/09 Q1018 Paxoi Ionio
31/10/2014 LGN4 312130Z 00000KT 14/12 Q1017 Zakynthos Ionio
31/10/2014 LGG9 312130Z 00003KT 07/04 Q1022 Amynteo Macedonia
31/10/2014 LG33 312130Z 02308KT 07/05 Q1022 Chalkidiki - Polygyros Macedonia
31/10/2014 LGJ1 312130Z 29300KT 09/08 Q1025 Chalkidiki - Stratoni Macedonia
31/10/2014 LGZ5 312130Z 33803KT 08/06 Q1024 Didymoteicho Macedonia
31/10/2014 LG55 310230Z 09002KT 09/07 Q1019 Dion Macedonia
31/10/2014 LGU8 312130Z 22500KT 07/06 Q1023 Doxato - Drama Macedonia
31/10/2014 LGH3 312150Z 13600KT 06/05 Q1023 Drama Macedonia
31/10/2014 LGH6 312130Z 00000KT 06/06 Q1022 Drama 2 Macedonia
31/10/2014 LGY3 312130Z 18001KT 07/07 Q1024 Eleutheroupoli Macedonia
27/10/2014 LGJ6 272050Z 15916G27KT 02/02 Q1009 Falakro Macedonia
31/10/2014 LG63 312130Z 33804KT 07/05 Q1027 Florina Macedonia
31/10/2014 LGZ8 312130Z 15801KT 08/08 Q1023 Fotolivos Macedonia
31/10/2014 LG73 312130Z 00000KT 10/07 Q1023 Giannitsa Macedonia
31/10/2014 LGF2 312130Z 00000KT 09/07 Q1022 Grevena Macedonia
31/10/2014 LGO4 312130Z 06803KT 06/04 Q1024 Hmathia - Rizomata Macedonia
30/10/2014 LG93 300930Z 06803KT 01/00 Q1023 Kaimaktsalan Macedonia
27/10/2014 LGN8 272050Z 19217G43KT 32/29 Q979 Kartakla - Falakro Macedonia
31/10/2014 LGO9 312130Z 22500KT 10/09 Q1022 Kassandreia (Xalkidiki) Macedonia
31/10/2014 LG27 312150Z 31100KT 11/08 Q1023 Kavala - Dexameni Macedonia
05/10/2014 LGA2 052147Z 00000KT 01/00 Q1022 Kavala - Eleftheroupoli Macedonia
31/10/2014 LG42 312130Z 31500KT 07/05 Q1023 Kilkis Macedonia
31/10/2014 LGW8 312130Z 04500KT 08/07 Q1024 Kimisi Macedonia
31/10/2014 LGJ4 312130Z 02301KT 08/05 Q1026 Kozani - Ardassa Macedonia
31/10/2014 LGP3 311130Z 20303KT 03/02 Q1021 Lailias - Serres Macedonia
31/10/2014 LGZ9 312130Z 31502KT 07/05 Q1024 Mavropigi Macedonia
31/10/2014 LG40 312130Z 18000KT 09/06 Q1024 Naousa Macedonia
31/10/2014 LGZ4 312130Z 02303KT 12/08 Q1022 Neos Marmaras Macedonia
31/10/2014 LG48 312130Z 02302KT 03/02 Q 0 Nevrokopi Drama Macedonia
31/10/2014 LGS4 312130Z 33803KT 06/04 Q1022 Notio Pedio - Eordea Macedonia
31/10/2014 LGW0 312130Z 29301KT 07/06 Q1024 Paranesti Macedonia
31/10/2014 LG26 312130Z 00000KT 08/04 Q1022 Ptolemaida Macedonia
31/10/2014 LG87 312130Z 09002KT 01/01 Q1024 Seli Ski Center Macedonia
31/10/2014 LGW6 312130Z 33800KT 08/07 Q1025 Serres Macedonia
31/10/2014 LGD9 312130Z 22500KT 08/07 Q1024 Serres - Kerkini Macedonia
01/11/2014 LG14 312200Z 00000G31104KT 61/52 Q10258 Serres - Proti Macedonia
07/10/2014 LGY8 071419Z 31505KT 9999 SCT036 10/00 Q1010 Thassos Macedonia
31/10/2014 LGR9 312130Z 31503KT 12/07 Q1023 Thessaloniki Macedonia
31/10/2014 LGF0 312130Z 00000KT 06/04 Q1024 Variko Macedonia
31/10/2014 LG82 312130Z 00000KT 00/M01 Q1023 Vassilitsa Macedonia
31/10/2014 LGC2 312030Z 00003KT 13/09 Q1021 Vatopedi - Athos Macedonia
31/10/2014 LGE9 312130Z 09000KT 05/03 Q1025 Vegoritida Macedonia
31/10/2014 LGE5 312130Z 00000KT 10/08 Q1020 Veroia Macedonia
31/10/2014 LG98 312130Z 06803KT 04/02 Q1023 Vlasti - Kozani Macedonia
31/10/2014 LGF5 312200Z 34102KT 05/03 Q1023 Vounochori - Kavala Macedonia
31/10/2014 LGU5 312130Z 29301KT 12/09 Q1019 Agioi Theodoroi Peloponissos
31/10/2014 LGU7 312130Z 22502KT 08/06 Q1018 Alagonia - Messinia Peloponissos
31/10/2014 LG52 312130Z 33802KT 12/10 Q1017 Amaliada Peloponissos
02/10/2014 LG77 020730Z 00000KT 20/11 Q1018 Andritsaina Peloponissos
31/10/2014 LGU6 312130Z 33801KT 11/10 Q1018 Arfara - Messinia Peloponissos
31/10/2014 LGT3 312130Z 29304KT 14/09 Q1020 Argos Peloponissos
17/10/2014 LGA8 172100Z 00000KT 00/00 Q 0 Chalandritsa Peloponissos
31/10/2014 LGV0 312130Z 06804KT 16/10 Q1020 Derveni Peloponissos
28/10/2014 LGK4 280730Z 15801KT -RA 03/02 Q1021 Elati Peloponissos
31/10/2014 LGC3 312130Z 06805KT 10/07 Q1017 Foloi - Ilia Peloponissos
31/10/2014 LGX6 312130Z 09001KT 13/09 Q1019 Geraki Peloponissos
24/10/2014 LGB7 241930Z 22502KT 14/03 Q1004 Ilia - Vartholomio Peloponissos
31/10/2014 LG85 312130Z 20305KT 15/10 Q1019 Isthmos Peloponissos
31/10/2014 LG6A 312030Z 00003KT 14/11 Q1018 Kalamata Peloponissos
31/10/2014 LGV7 312130Z 13502KT 09/06 Q1021 Kalavryta Peloponissos
23/10/2014 LGZ3 232130Z 09002KT 15/08 Q1010 Kardamyli Peloponissos
31/10/2014 LGJ5 312130Z 00003KT 16/12 Q1018 Katakolo Peloponissos
31/10/2014 LGP7 312130Z 00000KT 08/07 Q1020 019 Kato Vlassia Peloponissos
27/10/2014 LGB2 272000Z 20301KT 27/23 Q1011 Katoachaia Peloponissos
31/10/2014 LGB5 310830Z 00012KT 15/11 Q1017 Kavomalias Peloponissos
29/10/2014 LGM7 291330Z 29301KT 16/13 Q1017 Kranidi Peloponissos
31/10/2014 LGV1 312130Z 09003KT 15/09 Q1017 Kyparissia Peloponissos
31/10/2014 LGW9 312130Z 04507KT 08/05 Q1019 Lagadia Peloponissos
31/10/2014 LG92 312130Z 04500KT 13/08 Q1017 Lappa-Larissos-Achaia Peloponissos
07/10/2014 LG91 070630Z 00000KT 21/15 Q1012 Lousika-Olenias-Achaia Peloponissos
31/10/2014 LGV4 312130Z 04506KT 10/09 Q1018 Lykochia Peloponissos
31/10/2014 LGG5 312130Z 27000KT 11/08 Q1019 Megalopoli Peloponissos
31/10/2014 LGV2 312130Z 13505KT 13/07 Q1018 Messinia - Kopanaki Peloponissos
31/10/2014 LGF8 312130Z 09004KT 15/10 Q1018 Molaoi Peloponissos
31/10/2014 LG56 312130Z 02321KT 16/12 Q1019 Monemvasia Peloponissos
31/10/2014 LGE1 312130Z 02307KT 12/09 Q1019 Nemea Peloponissos
31/10/2014 LGD5 312130Z 00000KT 10/07 Q1018 Oleni - Ilia Peloponissos
31/10/2014 LGB3 312130Z 09003KT 14/10 Q1017 Olympia Peloponissos
31/10/2014 LGV6 312130Z 09012G23KT 03/03 Q1021 Panachaiko Oros Peloponissos
31/10/2014 LGZ1 312130Z 09011KT 16/08 Q1017 Patra Peloponissos
31/10/2014 LG79 310505Z 00000G31104KT 129/94 Q10173 Patra - Agia Peloponissos
01/11/2014 LG71 312200Z 00000G864KT 141/89 Q10183 Patra - Drosia Peloponissos
29/10/2014 LG84 291730Z 06805KT 17/12 Q1017 Patra - Port Peloponissos
31/10/2014 LG59 312130Z 27001KT 13/11 Q1017 Pirgos Peloponissos
31/10/2014 LGH8 312130Z 11305KT 16/09 Q1019 Rio Peloponissos
31/10/2014 LGT9 312130Z 06803KT 14/06 Q1017 Romanos - Patra Peloponissos
31/10/2014 LGA0 312130Z 09002KT 14/08 Q1017 Sagaiika Peloponissos
31/10/2014 LGF7 311530Z 33802KT 13/10 Q1019 Sparti Peloponissos
31/10/2014 LGS2 312130Z 20302KT 08/05 Q1019 Stemnitsa Peloponissos
31/10/2014 LGR1 312130Z 04501KT 06/06 Q1019 Trikala Korinthias Peloponissos
31/10/2014 LG83 312130Z 00000KT 09/07 Q1021 Tripoli Peloponissos
31/10/2014 LGU9 312130Z 22500KT 06/05 Q1020 Vytina Peloponissos
31/10/2014 LG86 312130Z 11303KT 13/10 Q1017 Zaxaro Peloponissos
31/10/2014 LGN2 312130Z 31502KT -RA 12/10 Q1024 Alonissos Sporades
31/10/2014 LGI1 312130Z 33813G25KT 13/08 Q1020 Skyros Sporades
31/10/2014 LGH9 312130Z 00000KT 12/08 Q1022 Agrinio Sterea Ellada
31/10/2014 LGC7 312130Z 20303KT 16/07 Q1019 Aitoliko Sterea Ellada
31/10/2014 LG29 312130Z 00000KT -RA 10/10 Q1021 Amfiklia Sterea Ellada
31/10/2014 LGH1 311700Z 00000KT 96/81 Q10218 Amfiklia 2 Sterea Ellada
31/10/2014 LGG8 312130Z 02316KT 11/08 Q1022 Antikira Sterea Ellada
31/10/2014 LG97 312210Z 00000KT 06/04 Q1020 Arachova Sterea Ellada
31/10/2014 LGC5 312130Z 09003KT 06/04 Q1022 Arahova Sterea Ellada
31/10/2014 LGH0 312130Z 00000KT 14/07 Q1019 Avlida Sterea Ellada
31/10/2014 LGR2 312130Z 24802KT 08/05 Q1020 Dam of Mornos Sterea Ellada
31/10/2014 LGR3 312130Z 09000KT 07/05 Q1021 Diakopi of Lidoriki Sterea Ellada
31/10/2014 LGW5 312130Z 06802KT 08/07 Q1022 Domokos Sterea Ellada
14/10/2014 LG21 141323Z 24804KT 29/15 Q1014 Evia - Chalkida Sterea Ellada
31/10/2014 LGY4 312130Z 00003KT 14/08 Q1021 Galaxidi Sterea Ellada
01/11/2014 LGC8 312200Z 1121728G6102KT 142/75 Q10190 Gavalou - Aitol/nia Sterea Ellada
31/10/2014 LGJ7 312130Z 29301KT 10/09 Q1023 Kaparelli Sterea Ellada
31/10/2014 LGC9 312130Z 33802KT 09/05 Q1022 Karpenisi Sterea Ellada
31/10/2014 LGP9 312130Z 00003KT 12/08 Q1019 Kleidi Viotias Sterea Ellada
31/10/2014 LGR4 312130Z 33807KT 08/05 Q1022 Koniakos of Lidoriki Sterea Ellada
31/10/2014 LG5A 312130Z 27002KT -RA 12/11 Q1021 Kopaida Sterea Ellada
31/10/2014 LGV9 312130Z 33801KT 12/10 Q1022 Lamia Sterea Ellada
31/10/2014 LGJ8 312030Z 09000KT 12/09 Q1021 Lefkochori Sterea Ellada
31/10/2014 LGI8 312130Z 22503KT -RA 11/10 Q1022 Livadeia Sterea Ellada
31/10/2014 LGE7 312130Z 11300KT 11/10 Q1020 Makrakomi Sterea Ellada
31/10/2014 LGA6 312130Z 11301KT 04/04 Q1021 Mavrolithari - Vardousia Sterea Ellada
31/10/2014 LGK8 312130Z 04510KT 05/04 Q1020 Myriki Sterea Ellada
31/10/2014 LGG4 312130Z 31503KT 07/04 Q1020 Orini Nafpaktia Sterea Ellada
01/11/2014 LGA4 010800Z 09009KT -SN 02/M02 Q1009 Parnassos Sterea Ellada
27/10/2014 LGF9 271530Z 00000KT 03/02 Q1011 Parnassos1950 Sterea Ellada
31/10/2014 LGL0 312130Z 13500KT 10/09 Q1023 Polydroso Sterea Ellada
07/10/2014 LGR7 071230Z 04508KT 11/09 Q1025 Prasino - Viotia Sterea Ellada
31/10/2014 LG69 312130Z 00000KT 12/07 Q1021 Tanagra Sterea Ellada
31/10/2014 LGO6 312130Z 00000KT 00/00 Q 0 Theologos Sterea Ellada
31/10/2014 LG94 312130Z 00000KT 67/55 Q10237 Hortiatis Thes/niki
31/10/2014 LG15 312213Z 31600KT 13/M04 Q1023 Kamara Thes/niki Thes/niki
13/10/2014 LGA5 132230Z 24800KT 17/16 Q1011 Lagadas Thes/niki
24/10/2014 LG11 240730Z 12901KT 10/06 Q1006 West Thes/niki Thes/niki
25/10/2014 LGV5 250330Z 13503KT 07/05 Q1008 Tsamantas Thesprotia
31/10/2014 LGL4 312130Z 11302KT 06/04 Q1023 Gardiki Thessalia
31/10/2014 LGW3 312130Z 00000KT 11/09 Q1022 Kalabaka Thessalia
31/10/2014 LG2A 312130Z 11301KT 11/10 Q1023 Karditsa Thessalia
30/10/2014 LGU3 302030Z 00000G864KT 126/101 Q10179 Larissa Thessalia
31/10/2014 LG41 312150Z 00000KT 120/87 Q10220 Larissa Thessalia
31/10/2014 LGL6 312130Z 06800KT 12/09 Q1022 Larissa Thessalia
31/10/2014 LGS8 312130Z 31500KT 08/07 Q1023 Larissa - Agia Thessalia
28/10/2014 LGL7 282230Z 24812KT 16/05 Q1014 Limni Plastira Thessalia
26/10/2014 LGU4 260700Z 29304KT 04/M07 Q1013 Olympos Thessalia
01/11/2014 LG7A 312200Z 00000G2592KT 115/78 Q10214 Pedio Areos Volou Thessalia
31/10/2014 LGE2 312130Z 11302KT 04/04 Q1021 Pertouli Thessalia
30/10/2014 LGY2 300630Z 11301KT 10/07 Q1019 Portaria - Pelio Thessalia
31/10/2014 LG80 312130Z 06808KT -RA 14/11 Q1023 Skopelos - Sporades Thessalia
31/10/2014 LG24 312130Z 33803KT 12/11 Q1022 Sporades - Skiathos Thessalia
31/10/2014 LG57 312130Z 00000KT 12/10 Q1023 Trikala Thessalia
31/10/2014 LG51 312130Z 04501KT 12/10 Q1021 Volos Thessalia
31/10/2014 LGG3 312130Z 24803KT 08/05 Q1025 Zagora EAA Thessalia
31/10/2014 LGD8 312130Z 02303KT 07/04 Q1023 Alexandroupolis Thraki
31/10/2014 LGM9 312130Z 04502KT 08/04 Q1022 Imeros Thraki
09/10/2014 LG35 091750Z 33604KT 23/15 Q1013 Komotini Thraki
31/10/2014 LGL2 312130Z 33800KT 08/05 Q1024 Metaxades - Evros Thraki
31/10/2014 LG31 312130Z 00000KT 07/05 Q1023 Orestiada Thraki
31/10/2014 LGC1 312130Z 02310G23KT 11/05 Q1023 Samothraki Thraki
23/10/2014 LGC6 230430Z 18010G21KT 20/18 Q 999 Xanthi Thraki
www.meteorologia.gr